Time;durP1;ratioP1;P1;durP2;ratioP2;P2;SDS_P1;SDS_P2;PMS_P1;PMS_P2;Temp;Humidity;BMP_temperature;BMP_pressure;BME280_temperature;BME280_humidity;BME280_pressure;Samples;Min_cycle;Max_cycle;Signal;HPM_P1;HPM_P2
2022/10/10 00:01:00;;;;;;;18.17;7.35;;;;;;;10.84;99.46;95365.22;5049927;28;20196;-71
2022/10/10 00:03:27;;;;;;;9.52;6.38;;;;;;;10.82;99.56;95372.88;5049379;28;20236;-70
2022/10/10 00:05:53;;;;;;;11.25;7.40;;;;;;;10.79;99.56;95379.72;5049780;28;20688;-70
2022/10/10 00:08:20;;;;;;;12.15;6.75;;;;;;;10.71;99.27;95380.47;5049471;28;20685;-70
2022/10/10 00:10:48;;;;;;;10.80;6.75;;;;;;;10.79;99.09;95385.16;5049252;28;20207;-70
2022/10/10 00:13:15;;;;;;;8.68;6.55;;;;;;;10.82;98.26;95389.13;5049585;28;20208;-70
2022/10/10 00:15:43;;;;;;;11.77;6.85;;;;;;;10.85;97.51;95385.81;5049031;28;20251;-71
2022/10/10 00:18:09;;;;;;;10.98;6.63;;;;;;;10.77;97.11;95387.38;5049561;28;20200;-70
2022/10/10 00:20:36;;;;;;;10.65;7.50;;;;;;;10.75;97.13;95381.44;5063524;28;20203;-70
2022/10/10 00:23:03;;;;;;;9.27;6.93;;;;;;;10.63;97.16;95382.03;5069427;28;20277;-70
2022/10/10 00:25:30;;;;;;;10.50;5.93;;;;;;;10.65;97.17;95370.88;5054937;28;20683;-70
2022/10/10 00:28:02;;;;;;;13.07;6.93;;;;;;;10.55;96.53;95374.63;5042186;28;20294;-70
2022/10/10 00:30:30;;;;;;;8.63;6.15;;;;;;;10.46;96.65;95373.75;5049666;28;20203;-70
2022/10/10 00:32:58;;;;;;;10.75;6.63;;;;;;;10.42;97.15;95367.34;5049231;28;20297;-70
2022/10/10 00:35:25;;;;;;;11.20;6.60;;;;;;;10.33;97.97;95380.03;5048492;28;20227;-70
2022/10/10 00:37:52;;;;;;;9.65;5.45;;;;;;;10.28;98.30;95372.84;5048646;28;20389;-70
2022/10/10 00:40:20;;;;;;;9.65;6.30;;;;;;;10.35;98.44;95377.84;5048682;28;20200;-70
2022/10/10 00:42:47;;;;;;;10.07;5.97;;;;;;;10.39;98.62;95380.75;5048322;28;20899;-70
2022/10/10 00:45:31;;;;;;;9.55;6.68;;;;;;;10.31;98.62;95371.44;5052455;28;20207;-70
2022/10/10 00:48:04;;;;;;;11.55;6.80;;;;;;;10.33;98.25;95380.03;5064504;28;20615;-70
2022/10/10 00:50:35;;;;;;;8.90;5.72;;;;;;;10.29;97.83;95379.03;5072846;28;20238;-70
2022/10/10 00:53:06;;;;;;;11.85;6.60;;;;;;;10.32;97.27;95378.44;5073785;28;20195;-70
2022/10/10 00:55:33;;;;;;;11.23;7.13;;;;;;;10.24;97.54;95381.91;5072524;28;20284;-70
2022/10/10 00:58:01;;;;;;;9.40;6.57;;;;;;;10.20;98.54;95386.31;5073145;28;20265;-70
2022/10/10 01:00:29;;;;;;;9.82;6.82;;;;;;;10.22;98.73;95394.94;5072683;28;20218;-70
2022/10/10 01:02:56;;;;;;;9.80;6.55;;;;;;;10.58;99.21;95392.97;5072915;28;20543;-70
2022/10/10 01:05:22;;;;;;;12.98;7.18;;;;;;;10.40;99.50;95385.81;5072247;28;20226;-70
2022/10/10 01:07:49;;;;;;;11.35;6.90;;;;;;;10.32;99.84;95391.97;5072679;28;20276;-70
2022/10/10 01:10:19;;;;;;;13.90;7.72;;;;;;;10.26;100.00;95380.47;5073172;28;20206;-70
2022/10/10 01:13:00;;;;;;;10.70;6.68;;;;;;;10.23;100.00;95391.13;5072020;28;20623;-71
2022/10/10 01:15:38;;;;;;;8.13;5.85;;;;;;;10.21;99.65;95391.44;5072532;28;20620;-71
2022/10/10 01:18:13;;;;;;;9.50;6.70;;;;;;;10.16;100.00;95388.00;5072305;28;20195;-71
2022/10/10 01:21:02;;;;;;;15.85;8.13;;;;;;;10.18;100.00;95388.50;5072549;28;20347;-71
2022/10/10 01:24:17;;;;;;;10.80;6.93;;;;;;;10.21;100.00;95388.72;5042178;28;20203;-71
2022/10/10 01:27:08;;;;;;;12.57;6.88;;;;;;;10.20;99.99;95386.31;5052993;28;20238;-71
2022/10/10 01:29:39;;;;;;;9.45;6.65;;;;;;;10.27;98.92;95398.31;5039677;28;20208;-71
2022/10/10 01:32:11;;;;;;;10.13;6.30;;;;;;;10.26;99.34;95385.06;5052602;28;20206;-71
2022/10/10 01:34:46;;;;;;;12.23;7.32;;;;;;;10.18;99.26;95383.91;5052190;28;20799;-71
2022/10/10 01:37:18;;;;;;;8.18;5.78;;;;;;;10.29;99.06;95389.88;5069063;28;20207;-71
2022/10/10 01:39:54;;;;;;;10.95;6.15;;;;;;;10.20;99.45;95391.72;5061056;28;20623;-71
2022/10/10 01:42:28;;;;;;;16.52;7.35;;;;;;;10.14;100.00;95390.19;5051810;28;20321;-71
2022/10/10 01:44:56;;;;;;;12.60;6.45;;;;;;;10.14;100.00;95382.06;5052463;28;20609;-71
2022/10/10 01:47:24;;;;;;;11.68;7.05;;;;;;;10.12;100.00;95389.69;5051078;28;20732;-71
2022/10/10 01:49:55;;;;;;;15.93;6.72;;;;;;;10.07;100.00;95387.13;5052397;28;20231;-71
2022/10/10 01:52:34;;;;;;;12.25;7.13;;;;;;;10.00;100.00;95382.13;5072367;28;20203;-71
2022/10/10 01:55:17;;;;;;;9.00;6.18;;;;;;;9.93;100.00;95377.13;5071273;28;20767;-71
2022/10/10 01:57:56;;;;;;;11.38;6.22;;;;;;;9.99;100.00;95397.56;5071755;28;20280;-71
2022/10/10 02:00:25;;;;;;;11.45;6.90;;;;;;;9.94;100.00;95384.16;5071490;28;20199;-71
2022/10/10 02:02:58;;;;;;;9.90;6.00;;;;;;;10.04;100.00;95388.53;5070860;28;20242;-71
2022/10/10 02:05:29;;;;;;;11.15;6.45;;;;;;;10.05;100.00;95389.34;5070887;28;20295;-71
2022/10/10 02:08:01;;;;;;;9.98;6.28;;;;;;;10.13;100.00;95386.69;5071851;28;20272;-71
2022/10/10 02:10:31;;;;;;;10.25;5.88;;;;;;;10.16;100.00;95396.13;5071767;28;20568;-71
2022/10/10 02:13:01;;;;;;;11.65;7.03;;;;;;;9.99;100.00;95386.72;5071762;28;20207;-71
2022/10/10 02:15:34;;;;;;;7.80;5.93;;;;;;;9.99;99.98;95394.84;5071343;28;20227;-71
2022/10/10 02:18:05;;;;;;;10.18;6.05;;;;;;;10.02;99.83;95395.34;5071157;28;20260;-71
2022/10/10 02:20:32;;;;;;;19.38;7.78;;;;;;;9.98;99.91;95395.94;5071439;28;20577;-71
2022/10/10 02:22:59;;;;;;;9.32;5.28;;;;;;;9.93;99.38;95404.22;5071013;28;20231;-71
2022/10/10 02:25:28;;;;;;;11.15;6.50;;;;;;;10.01;99.62;95394.56;5071041;28;20425;-71
2022/10/10 02:28:05;;;;;;;10.77;6.18;;;;;;;10.05;99.28;95395.56;5058749;28;20204;-71
2022/10/10 02:30:36;;;;;;;11.43;6.97;;;;;;;9.99;99.30;95394.84;5051525;28;20268;-71
2022/10/10 02:33:05;;;;;;;10.82;6.93;;;;;;;10.03;99.73;95397.75;5051370;28;20196;-71
2022/10/10 02:35:35;;;;;;;12.63;6.20;;;;;;;10.11;99.48;95398.97;5067473;28;20226;-71
2022/10/10 02:38:04;;;;;;;11.05;5.60;;;;;;;10.15;99.50;95395.31;5070876;28;20268;-71
2022/10/10 02:40:32;;;;;;;12.50;6.35;;;;;;;10.22;99.19;95405.75;5070983;28;20211;-71
2022/10/10 02:43:02;;;;;;;8.70;6.15;;;;;;;10.23;98.76;95401.97;5070842;28;20223;-71
2022/10/10 02:45:31;;;;;;;9.63;5.57;;;;;;;10.26;98.92;95398.59;5070852;28;20203;-71
2022/10/10 02:48:00;;;;;;;9.25;6.43;;;;;;;10.22;98.28;95398.44;5058843;28;20208;-71
2022/10/10 02:50:28;;;;;;;11.98;5.78;;;;;;;10.25;98.67;95405.16;5049767;28;20293;-71
2022/10/10 02:52:55;;;;;;;7.55;5.05;;;;;;;10.30;98.56;95396.91;5051245;28;20299;-71
2022/10/10 02:55:22;;;;;;;7.70;5.30;;;;;;;10.25;98.08;95397.03;5050677;28;20289;-71
2022/10/10 02:57:49;;;;;;;12.10;6.78;;;;;;;10.19;98.79;95395.53;5063963;28;20266;-70
2022/10/10 03:00:16;;;;;;;8.80;5.53;;;;;;;10.22;98.78;95401.16;5070358;28;20206;-70
2022/10/10 03:02:43;;;;;;;9.32;6.65;;;;;;;10.23;98.32;95401.97;5070440;28;20268;-70
2022/10/10 03:05:12;;;;;;;7.97;5.28;;;;;;;10.21;97.55;95401.47;5070693;28;20199;-70
2022/10/10 03:07:39;;;;;;;8.75;6.10;;;;;;;10.19;97.65;95401.75;5068379;28;20727;-70
2022/10/10 03:10:06;;;;;;;9.73;5.80;;;;;;;10.16;97.60;95405.03;5069088;28;20260;-70
2022/10/10 03:12:34;;;;;;;8.07;5.45;;;;;;;10.07;98.33;95403.38;5056070;28;20223;-70
2022/10/10 03:15:00;;;;;;;8.65;5.38;;;;;;;9.99;98.68;95397.56;5050758;28;20273;-70
2022/10/10 03:17:27;;;;;;;9.02;5.25;;;;;;;9.94;98.80;95400.41;5050825;28;20222;-70
2022/10/10 03:19:54;;;;;;;8.20;5.57;;;;;;;9.92;99.07;95401.81;5050281;28;20679;-71
2022/10/10 03:22:22;;;;;;;8.35;5.90;;;;;;;9.90;99.35;95407.50;5050516;28;20288;-71
2022/10/10 03:24:49;;;;;;;6.03;4.72;;;;;;;9.84;98.82;95416.81;5050751;28;20263;-71
2022/10/10 03:27:16;;;;;;;7.13;5.25;;;;;;;9.72;99.26;95411.13;5045303;28;20233;-71
2022/10/10 03:29:43;;;;;;;10.45;5.15;;;;;;;9.68;99.50;95418.28;5059169;28;20256;-71
2022/10/10 03:32:09;;;;;;;10.15;6.10;;;;;;;9.73;99.58;95414.66;5055308;28;20208;-71
2022/10/10 03:34:36;;;;;;;8.50;5.57;;;;;;;9.63;100.00;95400.25;5050819;28;20633;-71
2022/10/10 03:37:03;;;;;;;13.68;7.05;;;;;;;9.62;100.00;95411.34;5050784;28;20192;-72
2022/10/10 03:39:31;;;;;;;17.20;9.07;;;;;;;9.63;100.00;95413.75;5050159;28;20203;-71
2022/10/10 03:41:58;;;;;;;19.65;12.55;;;;;;;9.64;100.00;95406.44;5049193;28;20483;-71
2022/10/10 03:44:25;;;;;;;14.25;8.70;;;;;;;9.64;99.98;95406.44;5050514;28;20207;-71
2022/10/10 03:46:52;;;;;;;13.00;8.48;;;;;;;9.58;99.68;95408.44;5050228;28;20203;-71
2022/10/10 03:49:19;;;;;;;16.40;7.97;;;;;;;9.56;100.00;95415.28;5050100;28;20239;-71
2022/10/10 03:51:45;;;;;;;10.52;6.50;;;;;;;9.52;100.00;95414.28;5051433;28;20204;-71
2022/10/10 03:54:13;;;;;;;14.02;6.63;;;;;;;9.45;99.10;95419.28;5061811;28;20265;-72
2022/10/10 03:56:41;;;;;;;10.43;7.22;;;;;;;9.34;99.12;95412.47;5050091;28;20694;-73
2022/10/10 03:59:07;;;;;;;11.45;7.15;;;;;;;9.34;99.40;95404.34;5050196;28;20700;-73
2022/10/10 04:01:34;;;;;;;10.30;6.55;;;;;;;9.32;99.71;95410.06;5050444;28;20349;-71
2022/10/10 04:04:01;;;;;;;11.05;7.63;;;;;;;9.32;100.00;95409.25;5049919;28;20227;-71
2022/10/10 04:06:28;;;;;;;13.55;8.30;;;;;;;9.34;100.00;95412.47;5050238;28;20655;-71
2022/10/10 04:08:55;;;;;;;11.70;7.82;;;;;;;9.31;100.00;95418.47;5049954;28;20290;-72
2022/10/10 04:11:22;;;;;;;13.50;8.18;;;;;;;9.30;100.00;95411.44;5050044;28;20203;-70
2022/10/10 04:13:50;;;;;;;11.85;7.03;;;;;;;9.29;100.00;95415.28;5049936;28;20200;-71
2022/10/10 04:16:17;;;;;;;11.23;6.90;;;;;;;9.22;100.00;95426.47;5049834;28;20646;-71
2022/10/10 04:18:44;;;;;;;12.05;7.25;;;;;;;9.27;100.00;95418.28;5051242;28;20291;-71
2022/10/10 04:21:11;;;;;;;10.70;7.15;;;;;;;9.27;100.00;95419.09;5044366;28;20227;-71
2022/10/10 04:23:39;;;;;;;13.02;7.78;;;;;;;9.33;100.00;95421.66;5053801;28;20249;-71
2022/10/10 04:26:06;;;;;;;13.05;8.65;;;;;;;9.31;100.00;95421.97;5054662;28;20198;-71
2022/10/10 04:28:32;;;;;;;20.13;9.63;;;;;;;9.36;100.00;95421.88;5058886;28;20253;-71
2022/10/10 04:31:01;;;;;;;14.70;9.20;;;;;;;9.32;100.00;95420.06;5072956;28;20703;-71
2022/10/10 04:33:27;;;;;;;17.77;8.57;;;;;;;9.43;100.00;95421.50;5073128;28;20246;-71
2022/10/10 04:35:54;;;;;;;12.13;8.13;;;;;;;9.40;100.00;95416.69;5073640;28;20640;-71
2022/10/10 04:38:21;;;;;;;14.85;8.82;;;;;;;9.39;100.00;95421.28;5073183;28;20203;-71
2022/10/10 04:40:49;;;;;;;19.15;8.98;;;;;;;9.34;100.00;95429.50;5073339;28;20209;-71
2022/10/10 04:43:16;;;;;;;26.08;11.90;;;;;;;9.40;100.00;95422.91;5066025;28;20440;-70
2022/10/10 04:45:43;;;;;;;16.85;10.70;;;;;;;9.45;100.00;95420.06;5042538;28;20662;-71
2022/10/10 04:48:11;;;;;;;17.42;9.32;;;;;;;9.55;100.00;95421.78;5059766;28;20214;-71
2022/10/10 04:50:39;;;;;;;28.60;14.60;;;;;;;9.64;100.00;95430.78;5055593;28;20829;-71
2022/10/10 04:53:05;;;;;;;25.95;11.05;;;;;;;9.79;100.00;95430.47;5072651;28;20289;-71
2022/10/10 04:55:32;;;;;;;16.90;10.02;;;;;;;10.15;100.00;95435.13;5062101;28;20311;-71
2022/10/10 04:57:59;;;;;;;24.50;9.95;;;;;;;10.91;100.00;95422.53;5058819;28;20222;-70
2022/10/10 05:00:26;;;;;;;19.85;10.52;;;;;;;11.58;98.68;95420.44;5050028;28;20561;-71
2022/10/10 05:02:53;;;;;;;19.25;11.82;;;;;;;12.28;94.64;95421.44;5048843;28;20281;-71
2022/10/10 05:05:21;;;;;;;24.58;12.50;;;;;;;13.18;87.95;95422.31;5072357;28;20256;-71
2022/10/10 05:07:48;;;;;;;21.30;11.93;;;;;;;13.93;84.64;95419.94;5072801;28;20203;-72
2022/10/10 05:10:15;;;;;;;17.10;10.40;;;;;;;14.62;80.51;95420.31;5072434;28;20211;-71
2022/10/10 05:12:41;;;;;;;14.50;9.77;;;;;;;15.21;76.60;95415.38;5071855;28;20207;-71
2022/10/10 05:15:09;;;;;;;14.90;8.43;;;;;;;15.77;73.87;95409.47;5071912;28;20236;-71
2022/10/10 05:17:35;;;;;;;15.55;9.52;;;;;;;16.19;72.23;95410.81;5072022;28;20211;-72
2022/10/10 05:20:03;;;;;;;15.82;10.10;;;;;;;16.30;72.21;95406.47;5071665;28;20694;-71
2022/10/10 05:22:31;;;;;;;16.17;8.95;;;;;;;16.75;71.08;95415.63;5069831;28;20300;-72
2022/10/10 05:24:58;;;;;;;14.43;9.18;;;;;;;17.02;67.98;95412.88;5050149;28;20266;-71
2022/10/10 05:27:25;;;;;;;22.17;9.32;;;;;;;17.12;69.18;95410.78;5059198;28;20520;-71
2022/10/10 05:29:52;;;;;;;20.85;9.57;;;;;;;17.58;65.72;95421.03;5050997;28;20211;-72
2022/10/10 05:32:19;;;;;;;20.30;9.82;;;;;;;17.71;64.59;95416.28;5051371;28;20693;-72
2022/10/10 05:34:46;;;;;;;16.38;9.80;;;;;;;17.04;66.04;95429.78;5051140;28;20207;-71
2022/10/10 05:37:12;;;;;;;17.13;11.15;;;;;;;17.28;66.46;95425.31;5051618;28;20231;-71
2022/10/10 05:39:40;;;;;;;24.23;13.27;;;;;;;17.80;65.91;95427.06;5051895;28;20261;-71
2022/10/10 05:42:07;;;;;;;18.25;10.65;;;;;;;17.72;64.89;95437.88;5051535;28;20227;-69
2022/10/10 05:44:34;;;;;;;18.77;10.73;;;;;;;17.97;63.52;95424.78;5052260;28;20208;-71
2022/10/10 05:47:03;;;;;;;18.67;11.63;;;;;;;17.75;65.31;95431.69;5051249;28;20551;-71
2022/10/10 05:49:30;;;;;;;23.85;10.93;;;;;;;17.70;65.44;95440.16;5050758;28;20763;-71
2022/10/10 05:51:57;;;;;;;20.95;10.95;;;;;;;18.51;64.76;95434.22;5052573;28;20208;-70
2022/10/10 05:54:23;;;;;;;17.17;10.70;;;;;;;18.76;61.30;95432.84;5061745;28;20226;-70
2022/10/10 05:56:51;;;;;;;16.92;10.18;;;;;;;18.86;61.52;95435.00;5058817;28;20285;-70
2022/10/10 05:59:18;;;;;;;20.88;14.68;;;;;;;19.33;60.94;95432.03;5050887;28;20475;-70
2022/10/10 06:01:45;;;;;;;20.23;10.98;;;;;;;19.63;60.44;95443.25;5054814;28;20199;-70
2022/10/10 06:04:12;;;;;;;17.17;11.85;;;;;;;19.52;60.71;95445.00;5062375;28;20259;-70
2022/10/10 06:06:38;;;;;;;17.73;13.93;;;;;;;19.83;58.53;95443.97;5053961;28;20206;-70
2022/10/10 06:09:05;;;;;;;24.58;14.90;;;;;;;20.12;58.47;95439.75;5063590;28;20203;-71
2022/10/10 06:11:32;;;;;;;15.85;10.70;;;;;;;20.48;57.06;95436.41;5053493;28;20199;-71
2022/10/10 06:14:01;;;;;;;17.98;10.40;;;;;;;20.47;56.52;95434.84;5051067;28;20238;-71
2022/10/10 06:16:28;;;;;;;15.05;10.18;;;;;;;20.26;57.87;95445.47;5050389;28;20265;-71
2022/10/10 06:18:56;;;;;;;17.95;10.18;;;;;;;20.42;57.36;95443.41;5053834;28;20200;-70
2022/10/10 06:21:23;;;;;;;14.05;9.75;;;;;;;20.14;58.79;95448.44;5050994;28;20225;-70
2022/10/10 06:23:50;;;;;;;17.40;10.55;;;;;;;21.00;55.45;95434.75;5044195;28;20227;-71
2022/10/10 06:26:17;;;;;;;17.27;10.48;;;;;;;20.53;56.06;95441.59;5052625;28;20218;-71
2022/10/10 06:28:45;;;;;;;15.02;12.80;;;;;;;20.42;56.46;95451.66;5049991;28;20643;-71
2022/10/10 06:31:14;;;;;;;15.93;10.82;;;;;;;19.39;57.96;95462.78;5049552;28;20204;-71
2022/10/10 06:33:42;;;;;;;15.18;10.63;;;;;;;19.78;58.87;95458.84;5050602;28;20239;-71
2022/10/10 06:36:08;;;;;;;19.30;11.43;;;;;;;19.80;56.85;95452.97;5050628;28;20232;-72
2022/10/10 06:38:37;;;;;;;16.08;10.45;;;;;;;18.75;59.32;95461.44;5050670;28;20207;-72
2022/10/10 06:41:04;;;;;;;13.38;10.60;;;;;;;17.89;62.44;95460.59;5049858;28;20228;-71
2022/10/10 06:43:31;;;;;;;15.18;11.18;;;;;;;17.73;63.44;95466.06;5050816;28;20285;-70
2022/10/10 06:45:58;;;;;;;15.80;11.30;;;;;;;17.38;65.10;95466.69;5050142;28;20736;-70
2022/10/10 06:48:28;;;;;;;16.45;12.15;;;;;;;16.79;66.46;95471.25;5066320;28;20552;-72
2022/10/10 06:50:57;;;;;;;20.35;12.55;;;;;;;16.50;67.47;95486.00;5069962;28;20814;-71
2022/10/10 06:53:24;;;;;;;17.00;11.95;;;;;;;16.51;67.71;95471.16;5070243;28;20203;-71
2022/10/10 06:55:50;;;;;;;18.90;13.32;;;;;;;16.27;69.34;95472.78;5059378;28;20746;-71
2022/10/10 06:58:17;;;;;;;25.10;14.60;;;;;;;16.64;68.60;95475.50;5049629;28;20250;-71
2022/10/10 07:00:51;;;;;;;19.90;10.50;;;;;;;17.10;67.73;95481.53;5049494;28;20223;-71
2022/10/10 07:03:18;;;;;;;19.05;11.27;;;;;;;17.00;67.16;95475.41;5050371;28;20261;-71
2022/10/10 07:05:49;;;;;;;19.13;14.80;;;;;;;17.21;67.32;95471.69;5050113;28;20234;-71
2022/10/10 07:08:16;;;;;;;18.98;14.50;;;;;;;16.73;68.00;95476.16;5049544;28;20199;-72
2022/10/10 07:10:43;;;;;;;22.65;14.65;;;;;;;16.67;67.94;95481.06;5050217;28;20200;-70
2022/10/10 07:13:09;;;;;;;25.55;15.32;;;;;;;16.86;67.77;95483.19;5049745;28;20589;-72
2022/10/10 07:15:36;;;;;;;21.23;14.45;;;;;;;16.02;69.54;95486.78;5062676;28;20252;-70
2022/10/10 07:18:03;;;;;;;24.02;15.10;;;;;;;16.02;69.48;95484.84;5069042;28;20235;-70
2022/10/10 07:20:30;;;;;;;20.60;14.55;;;;;;;16.30;69.17;95479.50;5069986;28;20223;-71
2022/10/10 07:22:58;;;;;;;20.35;9.95;;;;;;;16.16;69.90;95479.84;5069596;28;20242;-71
2022/10/10 07:25:25;;;;;;;20.65;10.75;;;;;;;16.02;69.95;95473.13;5069538;28;20667;-72
2022/10/10 07:27:52;;;;;;;27.25;17.05;;;;;;;16.22;69.52;95473.03;5057366;28;20227;-71
2022/10/10 07:30:19;;;;;;;23.65;10.80;;;;;;;16.38;69.08;95475.88;5049146;28;20261;-70
2022/10/10 07:32:46;;;;;;;19.17;11.95;;;;;;;16.75;67.57;95476.63;5057237;28;20202;-69
2022/10/10 07:35:13;;;;;;;17.88;11.30;;;;;;;16.93;67.65;95477.94;5069257;28;20207;-70
2022/10/10 07:37:40;;;;;;;23.77;15.27;;;;;;;17.31;65.77;95471.19;5055962;28;20231;-69
2022/10/10 07:40:09;;;;;;;26.20;15.48;;;;;;;17.74;64.72;95473.94;5041576;28;20203;-69
2022/10/10 07:42:36;;;;;;;20.85;14.40;;;;;;;17.97;64.21;95465.09;5049153;28;20300;-70
2022/10/10 07:45:04;;;;;;;18.27;11.02;;;;;;;17.92;63.72;95465.34;5048773;28;20216;-70
2022/10/10 07:47:31;;;;;;;17.80;11.25;;;;;;;18.41;62.21;95454.78;5048660;28;20574;-70
2022/10/10 07:49:57;;;;;;;16.55;10.82;;;;;;;18.88;61.47;95457.41;5048302;28;20239;-70
2022/10/10 07:52:24;;;;;;;25.63;12.05;;;;;;;18.86;62.02;95451.50;5056559;28;20253;-70
2022/10/10 07:54:51;;;;;;;18.48;12.73;;;;;;;18.48;61.24;95453.00;5068566;28;20215;-70
2022/10/10 07:57:19;;;;;;;20.10;13.20;;;;;;;17.66;63.54;95460.38;5068556;28;20238;-70
2022/10/10 07:59:46;;;;;;;20.77;13.15;;;;;;;17.30;64.98;95453.16;5067773;28;20681;-69
2022/10/10 08:02:12;;;;;;;18.17;12.52;;;;;;;17.32;65.04;95457.13;5068210;28;20609;-69
2022/10/10 08:04:39;;;;;;;14.88;11.77;;;;;;;17.29;65.45;95457.03;5068269;28;20253;-69
2022/10/10 08:07:06;;;;;;;17.48;11.70;;;;;;;17.14;65.54;95455.03;5068584;28;20199;-69
2022/10/10 08:09:33;;;;;;;18.23;11.07;;;;;;;16.91;66.56;95452.84;5068858;28;21371;-69
2022/10/10 08:12:00;;;;;;;17.85;11.77;;;;;;;17.40;66.08;95447.16;5068440;28;20296;-69
2022/10/10 08:14:28;;;;;;;14.48;10.63;;;;;;;17.37;66.00;95453.31;5068647;28;20256;-69
2022/10/10 08:16:55;;;;;;;15.52;10.02;;;;;;;17.42;65.11;95453.09;5049131;28;20227;-69
2022/10/10 08:19:21;;;;;;;16.23;9.45;;;;;;;17.81;64.77;95451.38;5048040;28;20208;-69
2022/10/10 08:21:49;;;;;;;13.88;8.63;;;;;;;17.77;64.61;95445.81;5055731;28;20227;-70
2022/10/10 08:24:16;;;;;;;12.43;8.43;;;;;;;17.69;64.45;95449.53;5066950;28;20454;-70
2022/10/10 08:26:42;;;;;;;14.63;8.20;;;;;;;18.04;64.39;95448.84;5065568;28;20199;-70
2022/10/10 08:29:09;;;;;;;13.90;9.18;;;;;;;18.14;64.33;95453.78;5048403;28;20328;-70
2022/10/10 08:31:37;;;;;;;11.10;8.75;;;;;;;18.14;64.95;95428.28;5048366;28;20218;-70
2022/10/10 08:34:04;;;;;;;13.93;8.13;;;;;;;18.59;62.64;95436.00;5047851;28;20261;-70
2022/10/10 08:36:31;;;;;;;12.57;7.72;;;;;;;18.95;61.72;95438.38;5047321;28;20566;-70
2022/10/10 08:38:59;;;;;;;10.52;7.03;;;;;;;18.32;61.92;95441.25;5048277;28;20285;-70
2022/10/10 08:41:38;;;;;;;7.80;6.50;;;;;;;18.08;62.04;95422.28;5049235;28;20263;-70
2022/10/10 08:44:12;;;;;;;10.20;7.15;;;;;;;18.34;62.07;95447.19;5048570;28;20206;-70
2022/10/10 08:46:44;;;;;;;9.95;6.72;;;;;;;18.38;61.58;95448.06;5048772;28;20294;-70
2022/10/10 08:49:19;;;;;;;11.63;7.15;;;;;;;18.35;61.47;95437.81;5047963;28;20240;-70
2022/10/10 08:51:54;;;;;;;10.60;6.63;;;;;;;18.30;60.45;95440.84;5048169;28;20211;-70
2022/10/10 08:54:25;;;;;;;9.98;4.90;;;;;;;18.26;60.11;95431.72;5048645;28;20204;-73
2022/10/10 08:56:58;;;;;;;8.88;5.72;;;;;;;18.39;60.40;95444.19;5048526;28;20238;-70
2022/10/10 08:59:29;;;;;;;9.43;6.50;;;;;;;18.30;60.55;95446.31;5048888;28;20203;-69
2022/10/10 09:02:04;;;;;;;9.60;6.75;;;;;;;18.96;60.08;95450.94;5048575;28;20258;-71
2022/10/10 09:04:32;;;;;;;10.23;6.78;;;;;;;18.70;59.38;95454.31;5049326;28;20245;-70
2022/10/10 09:07:14;;;;;;;8.50;5.95;;;;;;;18.63;59.87;95458.84;5052454;28;20215;-74
2022/10/10 09:09:54;;;;;;;8.70;6.78;;;;;;;18.69;59.50;95451.94;5052138;28;20191;-69
2022/10/10 09:12:29;;;;;;;11.43;6.55;;;;;;;19.09;59.90;95446.91;5047677;28;20234;-68
2022/10/10 09:15:09;;;;;;;7.40;5.68;;;;;;;18.96;58.96;95450.94;5049639;28;20231;-68
2022/10/10 09:17:42;;;;;;;7.63;5.70;;;;;;;18.73;58.13;95475.53;5049430;28;20215;-67
2022/10/10 09:20:26;;;;;;;7.00;5.63;;;;;;;18.70;58.92;95453.53;5041212;28;20556;-70
2022/10/10 09:22:58;;;;;;;9.55;5.97;;;;;;;19.04;58.88;95463.66;5051649;28;20221;-69
2022/10/10 09:25:30;;;;;;;6.93;5.13;;;;;;;19.10;57.62;95462.22;5049403;28;20220;-69
2022/10/10 09:28:05;;;;;;;9.27;5.70;;;;;;;18.92;59.03;95472.03;5033831;28;20196;-69
2022/10/10 09:30:35;;;;;;;10.27;6.25;;;;;;;19.01;57.85;95458.88;5061568;28;20203;-71
2022/10/10 09:33:09;;;;;;;5.95;4.50;;;;;;;19.08;57.21;95459.03;5070934;28;20636;-70
2022/10/10 09:35:38;;;;;;;7.88;5.47;;;;;;;18.98;57.41;95465.13;5062695;28;20192;-69
2022/10/10 09:38:25;;;;;;;7.20;5.07;;;;;;;18.91;57.25;95481.41;5048894;28;20738;-69
2022/10/10 09:40:57;;;;;;;7.13;5.20;;;;;;;19.08;56.65;95472.78;5038449;28;20710;-70
2022/10/10 09:43:31;;;;;;;10.07;5.80;;;;;;;19.35;56.55;95470.16;5062786;28;20565;-70
2022/10/10 09:45:57;;;;;;;9.60;5.47;;;;;;;19.22;56.47;95471.47;5039548;28;20207;-69
2022/10/10 09:48:30;;;;;;;6.45;4.75;;;;;;;19.09;56.63;95477.09;5052725;28;20192;-68
2022/10/10 09:50:57;;;;;;;5.95;5.13;;;;;;;18.96;56.72;95475.66;5070540;28;20747;-69
2022/10/10 09:53:24;;;;;;;6.40;4.95;;;;;;;19.02;56.78;95471.44;5066459;28;20203;-68
2022/10/10 09:55:52;;;;;;;7.93;4.90;;;;;;;19.09;56.66;95463.38;5046512;28;20631;-69
2022/10/10 09:58:27;;;;;;;6.82;5.32;;;;;;;19.20;57.63;95471.81;5044014;28;20230;-69
2022/10/10 10:00:54;;;;;;;8.35;5.63;;;;;;;19.61;55.78;95464.00;5070135;28;20195;-68
2022/10/10 10:03:22;;;;;;;7.22;4.85;;;;;;;19.81;54.83;95463.63;5067864;28;20203;-70
2022/10/10 10:06:00;;;;;;;6.13;4.80;;;;;;;19.71;54.88;95461.44;5049565;28;20456;-69
2022/10/10 10:08:30;;;;;;;5.57;4.47;;;;;;;20.14;54.03;95448.44;5047601;28;20264;-72
2022/10/10 10:10:57;;;;;;;5.05;4.50;;;;;;;20.19;53.21;95445.38;5056673;28;20841;-70
2022/10/10 10:13:27;;;;;;;5.32;4.35;;;;;;;20.21;53.37;95446.59;5049053;28;20736;-71
2022/10/10 10:16:01;;;;;;;6.15;3.83;;;;;;;20.06;53.87;95449.47;5059664;28;20586;-71
2022/10/10 10:18:29;;;;;;;6.50;4.70;;;;;;;20.06;53.24;95452.22;5054136;28;20244;-71
2022/10/10 10:21:12;;;;;;;5.20;4.22;;;;;;;19.92;53.93;95452.00;5070408;28;20223;-70
2022/10/10 10:23:42;;;;;;;5.65;4.38;;;;;;;20.23;52.87;95440.69;5062810;28;20257;-70
2022/10/10 10:26:23;;;;;;;5.43;4.18;;;;;;;20.60;52.44;95431.84;5066643;28;20463;-69
2022/10/10 10:28:52;;;;;;;6.72;5.00;;;;;;;20.74;52.09;95437.56;5045476;28;20195;-73
2022/10/10 10:31:41;;;;;;;6.53;4.68;;;;;;;20.58;51.50;95446.78;5049484;28;20250;-70
2022/10/10 10:34:43;;;;;;;7.05;4.85;;;;;;;20.83;51.43;95438.88;5049366;28;20192;-70
2022/10/10 10:37:20;;;;;;;7.15;4.30;;;;;;;20.81;51.81;95437.66;5046027;28;20731;-70
2022/10/10 10:39:59;;;;;;;6.63;4.85;;;;;;;20.57;51.92;95428.69;5070422;28;20207;-71
2022/10/10 10:42:41;;;;;;;5.10;4.43;;;;;;;20.58;52.82;95435.78;5070250;28;20248;-70
2022/10/10 10:45:15;;;;;;;5.50;4.53;;;;;;;20.36;52.43;95433.88;5042165;28;20484;-71
2022/10/10 10:47:54;;;;;;;5.85;4.50;;;;;;;20.39;52.14;95437.81;5056991;28;20226;-69
2022/10/10 10:50:34;;;;;;;5.70;4.45;;;;;;;20.45;51.97;95426.16;5067219;28;20280;-72
2022/10/10 10:53:15;;;;;;;6.65;5.03;;;;;;;20.22;53.43;95428.13;5070747;28;20226;-71
2022/10/10 10:55:49;;;;;;;5.90;4.13;;;;;;;20.05;53.58;95434.13;5048896;28;20277;-70
2022/10/10 10:58:42;;;;;;;6.00;4.95;;;;;;;19.85;55.12;95441.66;5042013;28;20217;-71
2022/10/10 11:01:16;;;;;;;7.72;4.85;;;;;;;19.92;53.99;95432.75;5064301;28;20282;-71
2022/10/10 11:03:58;;;;;;;6.75;4.70;;;;;;;19.77;54.18;95429.75;5039904;28;20238;-72
2022/10/10 11:06:50;;;;;;;5.68;4.47;;;;;;;19.74;53.73;95418.69;5055759;28;20204;-72
2022/10/10 11:09:25;;;;;;;7.97;4.80;;;;;;;19.59;54.73;95409.38;5048945;28;20199;-71
2022/10/10 11:12:02;;;;;;;10.07;4.65;;;;;;;19.57;54.21;95402.66;5049177;28;20207;-70
2022/10/10 11:14:47;;;;;;;5.15;4.20;;;;;;;19.76;53.90;95395.16;5052351;28;21018;-72
2022/10/10 11:17:20;;;;;;;6.80;4.07;;;;;;;19.87;54.09;95406.34;5068498;28;20199;-72
2022/10/10 11:19:55;;;;;;;6.88;5.07;;;;;;;20.09;53.40;95400.00;5068896;28;20227;-72
2022/10/10 11:22:26;;;;;;;7.15;4.80;;;;;;;19.98;53.42;95401.78;5068020;28;20658;-72
2022/10/10 11:24:59;;;;;;;5.13;4.25;;;;;;;19.91;53.76;95403.66;5069046;28;20290;-72
2022/10/10 11:27:32;;;;;;;5.07;4.25;;;;;;;19.90;54.69;95411.09;5060827;28;20537;-72
2022/10/10 11:30:06;;;;;;;7.93;4.50;;;;;;;19.60;55.05;95412.94;5049180;28;20204;-71
2022/10/10 11:32:40;;;;;;;6.05;4.10;;;;;;;19.44;54.99;95404.75;5050082;28;20255;-71
2022/10/10 11:35:17;;;;;;;6.50;4.78;;;;;;;19.58;55.40;95394.06;5049744;28;20241;-71
2022/10/10 11:37:50;;;;;;;8.70;4.97;;;;;;;19.85;55.08;95386.66;5049392;28;20227;-72
2022/10/10 11:40:45;;;;;;;5.40;4.00;;;;;;;19.76;54.84;95386.91;5049252;28;20283;-71